createdAt,value
2018-06-23T00:01:01.374Z,7.8
2018-06-23T00:06:01.268Z,7.1
2018-06-23T00:11:01.398Z,7.8
2018-06-23T00:21:01.408Z,7.4
2018-06-23T00:26:01.235Z,8.3
2018-06-23T00:31:01.357Z,8.1
2018-06-23T00:36:01.296Z,6.4
2018-06-23T00:41:01.465Z,6.0
2018-06-23T00:46:01.244Z,5.9
2018-06-23T00:51:01.366Z,6.1
2018-06-23T00:56:01.248Z,5.8
2018-06-23T01:06:01.361Z,5.2
2018-06-23T01:11:01.761Z,5.3
2018-06-23T01:16:01.379Z,4.3
2018-06-23T01:21:01.249Z,4.8
2018-06-23T01:26:01.338Z,5.0
2018-06-23T01:31:01.347Z,4.8
2018-06-23T01:41:01.234Z,4.7
2018-06-23T01:46:06.239Z,4.2
2018-06-23T01:51:01.298Z,5.0
2018-06-23T01:56:01.242Z,5.4
2018-06-23T02:01:01.370Z,5.0
2018-06-23T02:06:01.216Z,5.4
2018-06-23T02:11:06.375Z,5.2
2018-06-23T02:16:01.234Z,4.9
2018-06-23T02:21:01.297Z,4.7
2018-06-23T02:26:02.288Z,4.9
2018-06-23T02:31:01.777Z,5.5
2018-06-23T02:41:01.307Z,5.4
2018-06-23T02:46:01.248Z,5.6
2018-06-23T02:57:01.365Z,4.9
2018-06-23T03:02:01.241Z,4.7
2018-06-23T03:07:01.210Z,4.0
2018-06-23T03:12:01.365Z,3.8
2018-06-23T03:17:01.307Z,3.6
2018-06-23T03:22:01.265Z,3.3
2018-06-23T03:32:01.402Z,3.4
2018-06-23T03:42:02.005Z,3.2
2018-06-23T03:52:01.311Z,3.4
2018-06-23T03:57:01.241Z,3.2
2018-06-23T04:12:01.375Z,3.2
2018-06-23T04:17:01.237Z,2.8
2018-06-23T04:22:01.299Z,3.2
2018-06-23T04:32:01.333Z,3.4
2018-06-23T04:42:01.299Z,3.8
2018-06-23T04:47:06.249Z,3.4
2018-06-23T04:52:01.384Z,4.0
2018-06-23T05:02:11.302Z,4.2
2018-06-23T05:07:01.201Z,4.1
2018-06-23T05:12:01.332Z,4.2
2018-06-23T05:17:01.208Z,4.0
2018-06-23T05:27:01.399Z,4.1
2018-06-23T05:32:01.376Z,4.4
2018-06-23T05:37:01.215Z,4.6
2018-06-23T05:47:01.356Z,4.9
2018-06-23T05:52:01.299Z,5.4
2018-06-23T05:57:01.204Z,5.9
2018-06-23T06:07:01.403Z,6.0
2018-06-23T06:12:01.257Z,5.7
2018-06-23T06:17:15.492Z,5.5
2018-06-23T06:22:01.238Z,5.2
2018-06-23T06:27:01.259Z,5.5
2018-06-23T06:32:01.392Z,5.6
2018-06-23T06:37:01.247Z,6.1
2018-06-23T06:42:01.508Z,6.0
2018-06-23T06:47:01.310Z,6.1
2018-06-23T06:52:02.536Z,5.8
2018-06-23T06:57:01.281Z,5.6
2018-06-23T07:07:06.305Z,5.5
2018-06-23T07:17:01.333Z,5.9
2018-06-23T07:22:01.592Z,6.1
2018-06-23T07:27:01.330Z,6.0
2018-06-23T07:32:01.360Z,5.8
2018-06-23T07:38:01.361Z,5.7
2018-06-23T07:43:01.170Z,5.6
2018-06-23T07:48:01.299Z,5.4
2018-06-23T07:53:02.263Z,5.0
2018-06-23T07:58:01.237Z,5.4
2018-06-23T08:03:01.596Z,5.7
2018-06-23T08:08:01.432Z,5.4
2018-06-23T08:18:01.376Z,5.3
2018-06-23T08:23:01.271Z,5.1
2018-06-23T08:33:01.386Z,5.2
2018-06-23T08:43:01.238Z,5.5
2018-06-23T08:48:01.252Z,5.2
2018-06-23T08:53:01.238Z,5.6
2018-06-23T08:58:01.319Z,5.9
2018-06-23T09:03:01.231Z,6.1
2018-06-23T09:08:01.278Z,6.4
2018-06-23T09:13:01.257Z,7.2
2018-06-23T09:18:01.238Z,6.4
2018-06-23T09:23:01.238Z,6.3
2018-06-23T09:33:01.398Z,5.9
2018-06-23T09:38:01.314Z,5.2
2018-06-23T09:43:06.231Z,5.8
2018-06-23T09:48:01.354Z,6.1
2018-06-23T09:53:06.238Z,6.9
2018-06-23T10:03:01.304Z,7.3
2018-06-23T10:08:01.375Z,6.8
2018-06-23T10:13:01.242Z,6.7
2018-06-23T10:18:01.402Z,5.9
2018-06-23T10:23:02.325Z,6.0
2018-06-23T10:28:01.429Z,5.7
2018-06-23T10:33:01.268Z,5.8
2018-06-23T10:38:01.430Z,5.9
2018-06-23T10:43:01.240Z,5.7
2018-06-23T10:48:01.708Z,5.5
2018-06-23T10:53:01.218Z,5.9
2018-06-23T10:58:01.244Z,6.3
2018-06-23T11:03:01.231Z,5.9
2018-06-23T11:08:01.330Z,6.1
2018-06-23T11:18:01.305Z,5.6
2018-06-23T11:23:01.241Z,4.8
2018-06-23T11:28:01.310Z,4.6
2018-06-23T11:33:01.341Z,4.2
2018-06-23T11:38:02.510Z,4.3
2018-06-23T11:43:01.272Z,4.2
2018-06-23T11:53:01.798Z,4.6
2018-06-23T11:58:01.344Z,4.8
2018-06-23T12:03:01.279Z,4.6
2018-06-23T12:08:01.419Z,4.5
2018-06-23T12:14:06.207Z,4.3
2018-06-23T12:19:01.425Z,4.0
2018-06-23T12:24:01.268Z,3.7
2018-06-23T12:29:02.010Z,3.6
2018-06-23T12:39:03.488Z,3.7
2018-06-23T12:44:01.317Z,4.0
2018-06-23T12:49:01.307Z,3.8
2018-06-23T12:54:01.241Z,3.6
2018-06-23T12:59:01.424Z,3.5
2018-06-23T13:04:06.316Z,3.6
2018-06-23T13:09:02.136Z,3.2
2018-06-23T13:19:06.501Z,3.5
2018-06-23T13:24:01.275Z,3.4
2018-06-23T13:29:01.432Z,3.5
2018-06-23T13:45:01.260Z,3.1
2018-06-23T13:50:01.554Z,3.3
2018-06-23T13:55:01.335Z,3.2
2018-06-23T14:00:01.562Z,3.3
2018-06-23T14:05:01.303Z,3.5
2018-06-23T14:10:01.497Z,3.8
2018-06-23T14:15:01.634Z,3.6
2018-06-23T14:20:01.355Z,3.3
2018-06-23T14:25:01.297Z,3.6
2018-06-23T14:30:01.372Z,3.7
2018-06-23T14:35:01.276Z,4.1
2018-06-23T14:40:01.370Z,4.4
2018-06-23T14:45:01.246Z,4.8
2018-06-23T14:50:06.307Z,4.6
2018-06-23T14:55:01.229Z,4.8
2018-06-23T15:00:01.488Z,4.4
2018-06-23T15:05:01.623Z,4.2
2018-06-23T15:20:00.650Z,4.0
2018-06-23T15:25:00.597Z,4.5
2018-06-23T15:30:00.640Z,4.4
2018-06-23T15:35:00.675Z,4.6
2018-06-23T15:40:00.771Z,4.5
2018-06-23T15:45:00.674Z,4.7
2018-06-23T15:50:00.656Z,4.8
2018-06-23T15:55:00.649Z,5.0
2018-06-23T16:00:00.715Z,5.2
2018-06-23T16:05:00.590Z,5.1
2018-06-23T16:10:00.887Z,5.7
2018-06-23T16:15:00.771Z,6.1
2018-06-23T16:20:00.715Z,6.5
2018-06-23T16:30:00.754Z,6.7
2018-06-23T16:35:00.835Z,6.0
2018-06-23T16:40:00.824Z,5.5
2018-06-23T16:45:00.631Z,4.7
2018-06-23T16:50:00.633Z,4.3
2018-06-23T16:55:00.633Z,4.7
2018-06-23T17:00:00.709Z,5.2
2018-06-23T17:05:00.711Z,5.4
2018-06-23T17:10:00.673Z,6.2
2018-06-23T17:15:00.669Z,6.8
2018-06-23T17:25:00.763Z,6.6
2018-06-23T17:30:00.753Z,7.3
2018-06-23T17:35:00.692Z,7.5
2018-06-23T17:40:00.854Z,7.4
2018-06-23T17:45:00.659Z,7.7
2018-06-23T17:55:00.725Z,6.9
2018-06-23T18:00:00.767Z,6.6
2018-06-23T18:05:00.643Z,6.9
2018-06-23T18:10:00.736Z,6.8
2018-06-23T18:15:00.613Z,6.8
2018-06-23T18:20:00.807Z,7.6
2018-06-23T18:25:01.032Z,8.7
2018-06-23T18:30:00.813Z,10.0
2018-06-23T18:35:00.716Z,11.0
2018-06-23T18:40:01.685Z,12.2
2018-06-23T18:45:00.689Z,12.8
2018-06-23T18:50:00.761Z,12.9
2018-06-23T18:55:00.791Z,11.9
2018-06-23T19:00:00.821Z,11.8
2018-06-23T19:05:00.631Z,11.9
2018-06-23T19:10:00.665Z,11.5
2018-06-23T19:15:00.728Z,11.7
2018-06-23T19:20:00.896Z,11.8
2018-06-23T19:25:00.788Z,11.4
2018-06-23T19:30:00.879Z,10.8
2018-06-23T19:35:05.672Z,11.1
2018-06-23T19:40:01.775Z,11.9
2018-06-23T19:45:01.724Z,11.7
2018-06-23T19:50:00.682Z,12.2
2018-06-23T19:55:01.008Z,12.3
2018-06-23T20:00:01.503Z,12.2
2018-06-23T20:05:01.013Z,10.9
2018-06-23T20:10:00.688Z,11.5
2018-06-23T20:15:00.732Z,11.2
2018-06-23T20:20:00.735Z,11.7
2018-06-23T20:25:00.748Z,11.4
2018-06-23T20:30:00.803Z,11.3
2018-06-23T20:35:00.732Z,11.8
2018-06-23T20:40:00.791Z,12.0
2018-06-23T20:45:00.727Z,11.4
2018-06-23T20:50:00.918Z,10.3
2018-06-23T20:55:00.707Z,11.0
2018-06-23T21:00:00.773Z,10.4
2018-06-23T21:05:00.719Z,10.2
2018-06-23T21:10:00.773Z,10.6
2018-06-23T21:15:00.825Z,11.5
2018-06-23T21:20:00.843Z,11.0
2018-06-23T21:25:00.750Z,10.8
2018-06-23T21:30:00.812Z,11.2
2018-06-23T21:35:05.739Z,11.0
2018-06-23T21:40:00.861Z,11.6
2018-06-23T21:45:00.733Z,11.5
2018-06-23T21:50:00.861Z,11.9
2018-06-23T21:55:00.727Z,11.6
2018-06-23T22:00:00.743Z,11.9
2018-06-23T22:05:00.776Z,11.6
2018-06-23T22:10:00.809Z,11.2
2018-06-23T22:15:00.776Z,11.6
2018-06-23T22:20:00.899Z,11.0
2018-06-23T22:25:00.815Z,11.1
2018-06-23T22:30:00.859Z,11.1
2018-06-23T22:35:00.800Z,11.6
2018-06-23T22:40:02.081Z,11.2
2018-06-23T22:45:00.786Z,11.1
2018-06-23T22:50:01.033Z,10.8
2018-06-23T22:55:00.760Z,9.8
2018-06-23T23:00:05.516Z,9.5
2018-06-23T23:05:00.795Z,8.9
2018-06-23T23:10:00.922Z,8.8
2018-06-23T23:15:05.855Z,8.1
2018-06-23T23:20:00.964Z,8.5
2018-06-23T23:25:00.803Z,7.7
2018-06-23T23:30:01.537Z,7.9
2018-06-23T23:35:00.773Z,7.8
2018-06-23T23:40:00.902Z,8.3
2018-06-23T23:45:05.841Z,8.2
2018-06-23T23:50:00.842Z,8.0
2018-06-23T23:55:00.748Z,7.2
